Time;durP1;ratioP1;P1;durP2;ratioP2;P2;SDS_P1;SDS_P2;PMS_P1;PMS_P2;Temp;Humidity;BMP_temperature;BMP_pressure;BME280_temperature;BME280_humidity;BME280_pressure;Samples;Min_cycle;Max_cycle;Signal;HPM_P1;HPM_P2
2021/10/14 00:00:45;;;;;;;;;;;;;;;;;;2107963;28;1336;-84
2021/10/14 00:01:46;;;;;;;;;;;;;;;;;;2107039;28;1419;-86
2021/10/14 00:02:48;;;;;;;;;;;;;;;;;;2091875;28;1312;-85
2021/10/14 00:03:49;;;;;;;;;;;;;;;;;;2090810;28;1229;-85
2021/10/14 00:04:51;;;;;;;;;;;;;;;;;;2091182;28;1206;-85
2021/10/14 00:05:51;;;;;;;;;;;;;;;;;;2090670;28;1372;-85
2021/10/14 00:06:53;;;;;;;;;;;;;;;;;;2098766;28;1344;-85
2021/10/14 00:07:54;;;;;;;;;;;;;;;;;;2107221;28;1911;-86
2021/10/14 00:08:56;;;;;;;;;;;;;;;;;;2107629;28;1265;-89
2021/10/14 00:09:59;;;;;;;;;;;;;;;;;;2099865;28;1415;-85
2021/10/14 00:11:00;;;;;;;;;;;;;;;;;;2107373;28;1205;-85
2021/10/14 00:12:04;;;;;;;;;;;;;;;;;;2099934;28;1399;-86
2021/10/14 00:13:05;;;;;;;;;;;;;;;;;;2107118;28;1476;-86
2021/10/14 00:14:07;;;;;;;;;;;;;;;;;;2107805;28;1910;-86
2021/10/14 00:15:09;;;;;;;;;;;;;;;;;;2098854;28;1575;-86
2021/10/14 00:16:13;;;;;;;;;;;;;;;;;;2099425;28;1182;-86
2021/10/14 00:17:13;;;;;;;;;;;;;;;;;;2099669;28;1865;-86
2021/10/14 00:18:16;;;;;;;;;;;;;;;;;;2101239;28;1394;-86
2021/10/14 00:19:17;;;;;;;;;;;;;;;;;;2108470;28;1278;-87
2021/10/14 00:20:19;;;;;;;;;;;;;;;;;;2100452;28;1300;-87
2021/10/14 00:21:20;;;;;;;;;;;;;;;;;;2092628;28;1208;-87
2021/10/14 00:22:22;;;;;;;;;;;;;;;;;;2100830;28;1344;-87
2021/10/14 00:23:23;;;;;;;;;;;;;;;;;;2100314;28;1360;-86
2021/10/14 00:24:25;;;;;;;;;;;;;;;;;;2109404;28;863;-86
2021/10/14 00:25:26;;;;;;;;;;;;;;;;;;2108361;28;2076;-86
2021/10/14 00:26:28;;;;;;;;;;;;;;;;;;2100881;28;1225;-86
2021/10/14 00:27:28;;;;;;;;;;;;;;;;;;2100329;28;2054;-86
2021/10/14 00:28:30;;;;;;;;;;;;;;;;;;2100698;28;1249;-86
2021/10/14 00:29:31;;;;;;;;;;;;;;;;;;2092476;28;1362;-86
2021/10/14 00:30:34;;;;;;;;;;;;;;;;;;2100620;28;1388;-84
2021/10/14 00:31:35;;;;;;;;;;;;;;;;;;2100024;28;1311;-83
2021/10/14 00:32:37;;;;;;;;;;;;;;;;;;2100324;28;2070;-82
2021/10/14 00:33:37;;;;;;;;;;;;;;;;;;2099957;28;1332;-83
2021/10/14 00:34:39;;;;;;;;;;;;;;;;;;2100614;28;1355;-83
2021/10/14 00:35:40;;;;;;;;;;;;;;;;;;2100028;28;1386;-83
2021/10/14 00:36:42;;;;;;;;;;;;;;;;;;2108930;28;1203;-83
2021/10/14 00:37:43;;;;;;;;;;;;;;;;;;2098811;28;2126;-83
2021/10/14 00:38:45;;;;;;;;;;;;;;;;;;2092532;28;1365;-83
2021/10/14 00:39:45;;;;;;;;;;;;;;;;;;2100342;28;1329;-82
2021/10/14 00:40:48;;;;;;;;;;;;;;;;;;2092297;28;1317;-83
2021/10/14 00:41:49;;;;;;;;;;;;;;;;;;2092385;28;1368;-83
2021/10/14 00:42:52;;;;;;;;;;;;;;;;;;2099251;28;1256;-83
2021/10/14 00:43:54;;;;;;;;;;;;;;;;;;2108718;28;1276;-83
2021/10/14 00:44:56;;;;;;;;;;;;;;;;;;2091916;28;1460;-83
2021/10/14 00:45:58;;;;;;;;;;;;;;;;;;2083897;28;1394;-83
2021/10/14 00:47:00;;;;;;;;;;;;;;;;;;2092249;28;1345;-83
2021/10/14 00:48:01;;;;;;;;;;;;;;;;;;2091866;28;1264;-83
2021/10/14 00:49:03;;;;;;;;;;;;;;;;;;2096916;28;1404;-83
2021/10/14 00:50:06;;;;;;;;;;;;;;;;;;2100065;28;1227;-83
2021/10/14 00:51:08;;;;;;;;;;;;;;;;;;2100381;28;1392;-83
2021/10/14 00:52:08;;;;;;;;;;;;;;;;;;2102230;28;2116;-83
2021/10/14 00:53:10;;;;;;;;;;;;;;;;;;2108596;28;1272;-83
2021/10/14 00:54:11;;;;;;;;;;;;;;;;;;2091677;28;1906;-83
2021/10/14 00:55:14;;;;;;;;;;;;;;;;;;2091969;28;1348;-82
2021/10/14 00:56:16;;;;;;;;;;;;;;;;;;2099697;28;1831;-83
2021/10/14 00:57:17;;;;;;;;;;;;;;;;;;2100313;28;1928;-83
2021/10/14 00:58:19;;;;;;;;;;;;;;;;;;2108841;28;1490;-83
2021/10/14 00:59:21;;;;;;;;;;;;;;;;;;2108296;28;1302;-83
2021/10/14 01:00:22;;;;;;;;;;;;;;;;;;2099804;28;1931;-84
2021/10/14 01:01:25;;;;;;;;;;;;;;;;;;2100415;28;1316;-83
2021/10/14 01:02:27;;;;;;;;;;;;;;;;;;2096142;28;1952;-83
2021/10/14 01:03:28;;;;;;;;;;;;;;;;;;2100326;28;1211;-83
2021/10/14 01:04:30;;;;;;;;;;;;;;;;;;2100445;28;1297;-83
2021/10/14 01:05:30;;;;;;;;;;;;;;;;;;2100075;28;1434;-83
2021/10/14 01:06:32;;;;;;;;;;;;;;;;;;2092121;28;1251;-83
2021/10/14 01:07:33;;;;;;;;;;;;;;;;;;2096784;28;1858;-83
2021/10/14 01:08:36;;;;;;;;;;;;;;;;;;2100103;28;1258;-83
2021/10/14 01:09:39;;;;;;;;;;;;;;;;;;2092038;28;1306;-83
2021/10/14 01:10:40;;;;;;;;;;;;;;;;;;2084586;28;1251;-83
2021/10/14 01:11:41;;;;;;;;;;;;;;;;;;2099811;28;1274;-83
2021/10/14 01:12:44;;;;;;;;;;;;;;;;;;2100129;28;2117;-83
2021/10/14 01:13:46;;;;;;;;;;;;;;;;;;2100412;28;923;-83
2021/10/14 01:14:47;;;;;;;;;;;;;;;;;;2092060;28;1976;-83
2021/10/14 01:15:49;;;;;;;;;;;;;;;;;;2095404;28;1338;-83
2021/10/14 01:16:51;;;;;;;;;;;;;;;;;;2099880;28;1337;-83
2021/10/14 01:17:54;;;;;;;;;;;;;;;;;;2099597;28;1751;-84
2021/10/14 01:18:55;;;;;;;;;;;;;;;;;;2092290;28;1301;-84
2021/10/14 01:19:59;;;;;;;;;;;;;;;;;;2091675;28;1437;-84
2021/10/14 01:21:01;;;;;;;;;;;;;;;;;;2099948;28;1311;-84
2021/10/14 01:22:02;;;;;;;;;;;;;;;;;;2099736;28;2031;-84
2021/10/14 01:23:04;;;;;;;;;;;;;;;;;;2099949;28;1221;-83
2021/10/14 01:24:05;;;;;;;;;;;;;;;;;;2100094;28;1397;-84
2021/10/14 01:25:08;;;;;;;;;;;;;;;;;;2099766;28;1713;-83
2021/10/14 01:26:09;;;;;;;;;;;;;;;;;;2093635;28;1187;-84
2021/10/14 01:27:11;;;;;;;;;;;;;;;;;;2093347;28;1857;-84
2021/10/14 01:28:11;;;;;;;;;;;;;;;;;;2091704;28;1574;-84
2021/10/14 01:29:13;;;;;;;;;;;;;;;;;;2091921;28;1274;-84
2021/10/14 01:30:14;;;;;;;;;;;;;;;;;;2092108;28;1182;-84
2021/10/14 01:31:16;;;;;;;;;;;;;;;;;;2091273;28;1297;-84
2021/10/14 01:32:17;;;;;;;;;;;;;;;;;;2099843;28;1324;-84
2021/10/14 01:33:19;;;;;;;;;;;;;;;;;;2091319;28;1372;-84
2021/10/14 01:34:20;;;;;;;;;;;;;;;;;;2091906;28;1906;-84
2021/10/14 01:35:24;;;;;;;;;;;;;;;;;;2092057;28;1934;-84
2021/10/14 01:36:25;;;;;;;;;;;;;;;;;;2100355;28;791;-84
2021/10/14 01:37:27;;;;;;;;;;;;;;;;;;2103873;28;1963;-84
2021/10/14 01:38:29;;;;;;;;;;;;;;;;;;2108453;28;933;-84
2021/10/14 01:39:30;;;;;;;;;;;;;;;;;;2100047;28;1263;-84
2021/10/14 01:40:31;;;;;;;;;;;;;;;;;;2083578;28;1406;-84
2021/10/14 01:41:33;;;;;;;;;;;;;;;;;;2091802;28;1273;-84
2021/10/14 01:42:34;;;;;;;;;;;;;;;;;;2099829;28;1233;-84
2021/10/14 01:43:36;;;;;;;;;;;;;;;;;;2108091;28;1264;-84
2021/10/14 01:44:37;;;;;;;;;;;;;;;;;;2100201;28;1214;-85
2021/10/14 01:45:39;;;;;;;;;;;;;;;;;;2090930;28;1229;-84
2021/10/14 01:46:40;;;;;;;;;;;;;;;;;;2091893;28;1474;-84
2021/10/14 01:47:42;;;;;;;;;;;;;;;;;;2082501;28;1267;-83
2021/10/14 01:48:44;;;;;;;;;;;;;;;;;;2100232;28;1343;-83
2021/10/14 01:49:46;;;;;;;;;;;;;;;;;;2091896;28;1258;-83
2021/10/14 01:50:48;;;;;;;;;;;;;;;;;;2103260;28;1842;-84
2021/10/14 01:51:50;;;;;;;;;;;;;;;;;;2099922;28;1257;-84
2021/10/14 01:52:51;;;;;;;;;;;;;;;;;;2108413;28;902;-84
2021/10/14 01:53:53;;;;;;;;;;;;;;;;;;2108445;28;1222;-84
2021/10/14 01:54:53;;;;;;;;;;;;;;;;;;2108747;28;1910;-84
2021/10/14 01:55:55;;;;;;;;;;;;;;;;;;2108420;28;1501;-84
2021/10/14 01:56:56;;;;;;;;;;;;;;;;;;2099550;28;1267;-84
2021/10/14 01:57:58;;;;;;;;;;;;;;;;;;2100131;28;1237;-84
2021/10/14 01:58:59;;;;;;;;;;;;;;;;;;2099548;28;1278;-84
2021/10/14 02:00:01;;;;;;;;;;;;;;;;;;2099703;28;1213;-84
2021/10/14 02:01:01;;;;;;;;;;;;;;;;;;2099727;28;1254;-84
2021/10/14 02:02:03;;;;;;;;;;;;;;;;;;2091260;28;1353;-84
2021/10/14 02:03:04;;;;;;;;;;;;;;;;;;2083121;28;1337;-84
2021/10/14 02:04:06;;;;;;;;;;;;;;;;;;2083148;28;1263;-84
2021/10/14 02:05:07;;;;;;;;;;;;;;;;;;2099839;28;1297;-84
2021/10/14 02:06:10;;;;;;;;;;;;;;;;;;2098451;28;1326;-84
2021/10/14 02:07:11;;;;;;;;;;;;;;;;;;2108420;28;1301;-84
2021/10/14 02:08:13;;;;;;;;;;;;;;;;;;2091240;28;1352;-84
2021/10/14 02:09:14;;;;;;;;;;;;;;;;;;2091811;28;1324;-84
2021/10/14 02:10:15;;;;;;;;;;;;;;;;;;2091356;28;1309;-84
2021/10/14 02:11:16;;;;;;;;;;;;;;;;;;2091246;28;1567;-84
2021/10/14 02:12:18;;;;;;;;;;;;;;;;;;2091056;28;1251;-84
2021/10/14 02:13:19;;;;;;;;;;;;;;;;;;2083376;28;1308;-84
2021/10/14 02:14:21;;;;;;;;;;;;;;;;;;2083092;28;1902;-84
2021/10/14 02:15:22;;;;;;;;;;;;;;;;;;2083601;28;1884;-85
2021/10/14 02:16:24;;;;;;;;;;;;;;;;;;2091701;28;1258;-84
2021/10/14 02:17:24;;;;;;;;;;;;;;;;;;2091118;28;1222;-84
2021/10/14 02:18:26;;;;;;;;;;;;;;;;;;2090733;28;1229;-84
2021/10/14 02:19:27;;;;;;;;;;;;;;;;;;2091117;28;1346;-84
2021/10/14 02:20:29;;;;;;;;;;;;;;;;;;2091593;28;1230;-84
2021/10/14 02:21:33;;;;;;;;;;;;;;;;;;2090940;28;1347;-84
2021/10/14 02:22:35;;;;;;;;;;;;;;;;;;2091965;28;1302;-84
2021/10/14 02:23:36;;;;;;;;;;;;;;;;;;2091272;28;1274;-85
2021/10/14 02:24:37;;;;;;;;;;;;;;;;;;2091293;28;1262;-84
2021/10/14 02:25:38;;;;;;;;;;;;;;;;;;2091205;28;1276;-84
2021/10/14 02:26:40;;;;;;;;;;;;;;;;;;2091352;28;1254;-84
2021/10/14 02:27:41;;;;;;;;;;;;;;;;;;2091112;28;1226;-84
2021/10/14 02:28:43;;;;;;;;;;;;;;;;;;2091245;28;1405;-84
2021/10/14 02:29:43;;;;;;;;;;;;;;;;;;2091218;28;1424;-84
2021/10/14 02:30:45;;;;;;;;;;;;;;;;;;2091508;28;1487;-84
2021/10/14 02:31:46;;;;;;;;;;;;;;;;;;2091126;28;1315;-84
2021/10/14 02:32:48;;;;;;;;;;;;;;;;;;2091245;28;2075;-85
2021/10/14 02:33:49;;;;;;;;;;;;;;;;;;2090922;28;1432;-84
2021/10/14 02:34:54;;;;;;;;;;;;;;;;;;2091578;28;1917;-84
2021/10/14 02:35:54;;;;;;;;;;;;;;;;;;2091652;28;1211;-84
2021/10/14 02:36:58;;;;;;;;;;;;;;;;;;2091566;28;1213;-84
2021/10/14 02:37:59;;;;;;;;;;;;;;;;;;2099871;28;912;-84
2021/10/14 02:39:01;;;;;;;;;;;;;;;;;;2099473;28;1323;-84
2021/10/14 02:40:02;;;;;;;;;;;;;;;;;;2099977;28;1230;-84
2021/10/14 02:41:04;;;;;;;;;;;;;;;;;;2091482;28;1369;-84
2021/10/14 02:42:05;;;;;;;;;;;;;;;;;;2091647;28;1269;-84
2021/10/14 02:43:06;;;;;;;;;;;;;;;;;;2091452;28;1336;-84
2021/10/14 02:44:07;;;;;;;;;;;;;;;;;;2099763;28;1222;-84
2021/10/14 02:45:09;;;;;;;;;;;;;;;;;;2090750;28;1433;-84
2021/10/14 02:46:11;;;;;;;;;;;;;;;;;;2091831;28;1327;-84
2021/10/14 02:47:13;;;;;;;;;;;;;;;;;;2099817;28;1385;-85
2021/10/14 02:48:14;;;;;;;;;;;;;;;;;;2099039;28;1384;-85
2021/10/14 02:49:15;;;;;;;;;;;;;;;;;;2090883;28;1228;-85
2021/10/14 02:50:16;;;;;;;;;;;;;;;;;;2091517;28;1253;-85
2021/10/14 02:51:18;;;;;;;;;;;;;;;;;;2090879;28;1220;-85
2021/10/14 02:52:20;;;;;;;;;;;;;;;;;;2093653;28;1324;-85
2021/10/14 02:53:23;;;;;;;;;;;;;;;;;;2091008;28;1234;-85
2021/10/14 02:54:24;;;;;;;;;;;;;;;;;;2100009;28;1314;-85
2021/10/14 02:55:26;;;;;;;;;;;;;;;;;;2099060;28;1917;-85
2021/10/14 02:56:27;;;;;;;;;;;;;;;;;;2091563;28;1327;-85
2021/10/14 02:57:29;;;;;;;;;;;;;;;;;;2099292;28;1432;-85
2021/10/14 02:58:29;;;;;;;;;;;;;;;;;;2091580;28;1254;-85
2021/10/14 02:59:31;;;;;;;;;;;;;;;;;;2091389;28;1255;-85
2021/10/14 03:00:32;;;;;;;;;;;;;;;;;;2091682;28;1454;-85
2021/10/14 03:01:36;;;;;;;;;;;;;;;;;;2099117;28;1267;-85
2021/10/14 03:02:36;;;;;;;;;;;;;;;;;;2099336;28;1900;-85
2021/10/14 03:03:38;;;;;;;;;;;;;;;;;;2082652;28;1255;-84
2021/10/14 03:04:39;;;;;;;;;;;;;;;;;;2075655;28;1393;-85
2021/10/14 03:05:42;;;;;;;;;;;;;;;;;;2091050;28;1327;-84
2021/10/14 03:06:43;;;;;;;;;;;;;;;;;;2091854;28;1305;-84
2021/10/14 03:07:47;;;;;;;;;;;;;;;;;;2091203;28;1337;-84
2021/10/14 03:08:48;;;;;;;;;;;;;;;;;;2091467;28;1456;-84
2021/10/14 03:09:51;;;;;;;;;;;;;;;;;;2091413;28;1186;-84
2021/10/14 03:10:52;;;;;;;;;;;;;;;;;;2099598;28;1414;-84
2021/10/14 03:11:54;;;;;;;;;;;;;;;;;;2099696;28;1229;-84
2021/10/14 03:12:55;;;;;;;;;;;;;;;;;;2091308;28;1379;-84
2021/10/14 03:13:57;;;;;;;;;;;;;;;;;;2099627;28;856;-84
2021/10/14 03:14:58;;;;;;;;;;;;;;;;;;2099076;28;1910;-85
2021/10/14 03:16:02;;;;;;;;;;;;;;;;;;2090913;28;1229;-85
2021/10/14 03:17:03;;;;;;;;;;;;;;;;;;2091155;28;1387;-85
2021/10/14 03:18:04;;;;;;;;;;;;;;;;;;2091280;28;1305;-85
2021/10/14 03:19:05;;;;;;;;;;;;;;;;;;2090938;28;1256;-84
2021/10/14 03:20:07;;;;;;;;;;;;;;;;;;2100096;28;1373;-84
2021/10/14 03:21:08;;;;;;;;;;;;;;;;;;2106012;28;1201;-84
2021/10/14 03:22:10;;;;;;;;;;;;;;;;;;2099637;28;1332;-84
2021/10/14 03:23:12;;;;;;;;;;;;;;;;;;2099131;28;1208;-84
2021/10/14 03:24:14;;;;;;;;;;;;;;;;;;2091137;28;1418;-84
2021/10/14 03:25:15;;;;;;;;;;;;;;;;;;2090747;28;1409;-84
2021/10/14 03:26:17;;;;;;;;;;;;;;;;;;2090758;28;1314;-84
2021/10/14 03:27:17;;;;;;;;;;;;;;;;;;2098386;28;1280;-84
2021/10/14 03:28:19;;;;;;;;;;;;;;;;;;2099825;28;1416;-84
2021/10/14 03:29:20;;;;;;;;;;;;;;;;;;2090856;28;1477;-83
2021/10/14 03:30:22;;;;;;;;;;;;;;;;;;2091009;28;1862;-85
2021/10/14 03:31:23;;;;;;;;;;;;;;;;;;2091403;28;1187;-84
2021/10/14 03:32:25;;;;;;;;;;;;;;;;;;2091198;28;1191;-85
2021/10/14 03:33:26;;;;;;;;;;;;;;;;;;2082442;28;1317;-85
2021/10/14 03:34:27;;;;;;;;;;;;;;;;;;2099607;28;1210;-84
2021/10/14 03:35:28;;;;;;;;;;;;;;;;;;2097758;28;1973;-85
2021/10/14 03:36:30;;;;;;;;;;;;;;;;;;2091229;28;1198;-84
2021/10/14 03:37:31;;;;;;;;;;;;;;;;;;2091285;28;1370;-85
2021/10/14 03:38:35;;;;;;;;;;;;;;;;;;2099121;28;1404;-85
2021/10/14 03:39:37;;;;;;;;;;;;;;;;;;2091261;28;1406;-86
2021/10/14 03:40:37;;;;;;;;;;;;;;;;;;2090782;28;2104;-85
2021/10/14 03:41:40;;;;;;;;;;;;;;;;;;2107714;28;1061;-85
2021/10/14 03:42:40;;;;;;;;;;;;;;;;;;2099131;28;1263;-85
2021/10/14 03:43:42;;;;;;;;;;;;;;;;;;2091037;28;1384;-85
2021/10/14 03:44:43;;;;;;;;;;;;;;;;;;2091381;28;1190;-85
2021/10/14 03:45:45;;;;;;;;;;;;;;;;;;2090635;28;1240;-85
2021/10/14 03:46:46;;;;;;;;;;;;;;;;;;2090912;28;1394;-85
2021/10/14 03:47:48;;;;;;;;;;;;;;;;;;2097756;28;1273;-85
2021/10/14 03:48:49;;;;;;;;;;;;;;;;;;2099307;28;1615;-85
2021/10/14 03:49:50;;;;;;;;;;;;;;;;;;2099009;28;1439;-85
2021/10/14 03:50:51;;;;;;;;;;;;;;;;;;2099233;28;1289;-85
2021/10/14 03:51:53;;;;;;;;;;;;;;;;;;2100329;28;1357;-85
2021/10/14 03:52:55;;;;;;;;;;;;;;;;;;2100659;28;1273;-85
2021/10/14 03:53:59;;;;;;;;;;;;;;;;;;2101123;28;1271;-85
2021/10/14 03:55:00;;;;;;;;;;;;;;;;;;2100676;28;1914;-85
2021/10/14 03:56:02;;;;;;;;;;;;;;;;;;2100915;28;1210;-85
2021/10/14 03:57:02;;;;;;;;;;;;;;;;;;2100597;28;1325;-85
2021/10/14 03:58:05;;;;;;;;;;;;;;;;;;2101123;28;1400;-85
2021/10/14 03:59:05;;;;;;;;;;;;;;;;;;2100573;28;1281;-85
2021/10/14 04:00:08;;;;;;;;;;;;;;;;;;2100710;28;1728;-85
2021/10/14 04:01:09;;;;;;;;;;;;;;;;;;2100895;28;1425;-85
2021/10/14 04:02:11;;;;;;;;;;;;;;;;;;2109138;28;1346;-85
2021/10/14 04:03:11;;;;;;;;;;;;;;;;;;2100901;28;1217;-86
2021/10/14 04:04:13;;;;;;;;;;;;;;;;;;2108859;28;1261;-85
2021/10/14 04:05:14;;;;;;;;;;;;;;;;;;2109195;28;1379;-85
2021/10/14 04:06:16;;;;;;;;;;;;;;;;;;2101182;28;1347;-85
2021/10/14 04:07:17;;;;;;;;;;;;;;;;;;2108358;28;1987;-85
2021/10/14 04:08:19;;;;;;;;;;;;;;;;;;2100680;28;1301;-84
2021/10/14 04:09:22;;;;;;;;;;;;;;;;;;2101005;28;1309;-85
2021/10/14 04:10:23;;;;;;;;;;;;;;;;;;2100557;28;792;-83
2021/10/14 04:11:25;;;;;;;;;;;;;;;;;;2092498;28;1222;-83
2021/10/14 04:12:26;;;;;;;;;;;;;;;;;;2092236;28;1289;-82
2021/10/14 04:13:28;;;;;;;;;;;;;;;;;;2092006;28;1219;-82
2021/10/14 04:14:29;;;;;;;;;;;;;;;;;;2092469;28;1195;-82
2021/10/14 04:15:31;;;;;;;;;;;;;;;;;;2092233;28;1975;-83
2021/10/14 04:16:31;;;;;;;;;;;;;;;;;;2092061;28;1231;-82
2021/10/14 04:17:34;;;;;;;;;;;;;;;;;;2091758;28;1331;-82
2021/10/14 04:18:36;;;;;;;;;;;;;;;;;;2092104;28;1595;-81
2021/10/14 04:19:39;;;;;;;;;;;;;;;;;;2091739;28;1728;-81
2021/10/14 04:20:40;;;;;;;;;;;;;;;;;;2084529;28;1222;-83
2021/10/14 04:21:42;;;;;;;;;;;;;;;;;;2083887;28;1198;-82
2021/10/14 04:22:43;;;;;;;;;;;;;;;;;;2098129;28;1900;-81
2021/10/14 04:23:44;;;;;;;;;;;;;;;;;;2100642;28;1210;-82
2021/10/14 04:24:48;;;;;;;;;;;;;;;;;;2108708;28;1384;-82
2021/10/14 04:25:50;;;;;;;;;;;;;;;;;;2109026;28;1280;-86
2021/10/14 04:26:51;;;;;;;;;;;;;;;;;;2109365;28;904;-87
2021/10/14 04:27:55;;;;;;;;;;;;;;;;;;2109172;28;1325;-88
2021/10/14 04:29:01;;;;;;;;;;;;;;;;;;2108859;28;1304;-86
2021/10/14 04:30:06;;;;;;;;;;;;;;;;;;2109192;28;1351;-87
2021/10/14 04:31:08;;;;;;;;;;;;;;;;;;2101402;28;1190;-87
2021/10/14 04:32:13;;;;;;;;;;;;;;;;;;2100635;28;1288;-87
2021/10/14 04:33:16;;;;;;;;;;;;;;;;;;2101221;28;1406;-89
2021/10/14 04:34:17;;;;;;;;;;;;;;;;;;2108726;28;1209;-86
2021/10/14 04:35:19;;;;;;;;;;;;;;;;;;2100375;28;1975;-86
2021/10/14 04:36:20;;;;;;;;;;;;;;;;;;2108792;28;1420;-85
2021/10/14 04:37:22;;;;;;;;;;;;;;;;;;2100345;28;1222;-86
2021/10/14 04:38:23;;;;;;;;;;;;;;;;;;2100941;28;1221;-83
2021/10/14 04:39:25;;;;;;;;;;;;;;;;;;2100523;28;1486;-87
2021/10/14 04:40:27;;;;;;;;;;;;;;;;;;2108169;28;1424;-86
2021/10/14 04:41:29;;;;;;;;;;;;;;;;;;2100143;28;1230;-86
2021/10/14 04:42:30;;;;;;;;;;;;;;;;;;2100626;28;1311;-82
2021/10/14 04:43:32;;;;;;;;;;;;;;;;;;2083980;28;1234;-86
2021/10/14 04:44:32;;;;;;;;;;;;;;;;;;2083875;28;1261;-86
2021/10/14 04:45:35;;;;;;;;;;;;;;;;;;2100477;28;1298;-86
2021/10/14 04:46:36;;;;;;;;;;;;;;;;;;2084496;28;1159;-86
2021/10/14 04:47:37;;;;;;;;;;;;;;;;;;2084054;28;1171;-85
2021/10/14 04:48:38;;;;;;;;;;;;;;;;;;2092350;28;1294;-86
2021/10/14 04:49:40;;;;;;;;;;;;;;;;;;2092404;28;1317;-86
2021/10/14 04:50:41;;;;;;;;;;;;;;;;;;2103400;28;1285;-86
2021/10/14 04:51:43;;;;;;;;;;;;;;;;;;2091932;28;1242;-86
2021/10/14 04:52:44;;;;;;;;;;;;;;;;;;2097785;28;1849;-85
2021/10/14 04:53:46;;;;;;;;;;;;;;;;;;2108573;28;1354;-84
2021/10/14 04:54:47;;;;;;;;;;;;;;;;;;2100614;28;1325;-84
2021/10/14 04:55:50;;;;;;;;;;;;;;;;;;2098957;28;1918;-84
2021/10/14 04:56:51;;;;;;;;;;;;;;;;;;2099853;28;1381;-86
2021/10/14 04:57:53;;;;;;;;;;;;;;;;;;2091456;28;1334;-85
2021/10/14 04:58:55;;;;;;;;;;;;;;;;;;2091904;28;1348;-86
2021/10/14 04:59:56;;;;;;;;;;;;;;;;;;2100129;28;1492;-84
2021/10/14 05:00:58;;;;;;;;;;;;;;;;;;2099414;28;2073;-86
2021/10/14 05:01:59;;;;;;;;;;;;;;;;;;2100323;28;1273;-87
2021/10/14 05:03:01;;;;;;;;;;;;;;;;;;2091165;28;1298;-87
2021/10/14 05:04:02;;;;;;;;;;;;;;;;;;2091796;28;1293;-85
2021/10/14 05:05:04;;;;;;;;;;;;;;;;;;2092090;28;1240;-85
2021/10/14 05:06:05;;;;;;;;;;;;;;;;;;2092290;28;1439;-85
2021/10/14 05:07:06;;;;;;;;;;;;;;;;;;2099995;28;1236;-85
2021/10/14 05:08:07;;;;;;;;;;;;;;;;;;2100537;28;1221;-84
2021/10/14 05:09:09;;;;;;;;;;;;;;;;;;2091721;28;1318;-86
2021/10/14 05:10:10;;;;;;;;;;;;;;;;;;2100191;28;1263;-86
2021/10/14 05:11:14;;;;;;;;;;;;;;;;;;2100775;28;1928;-86
2021/10/14 05:12:15;;;;;;;;;;;;;;;;;;2100270;28;1421;-86
2021/10/14 05:13:17;;;;;;;;;;;;;;;;;;2092247;28;1361;-86
2021/10/14 05:14:18;;;;;;;;;;;;;;;;;;2100483;28;1328;-86
2021/10/14 05:15:20;;;;;;;;;;;;;;;;;;2108100;28;1457;-86
2021/10/14 05:16:21;;;;;;;;;;;;;;;;;;2092179;28;1194;-86
2021/10/14 05:17:22;;;;;;;;;;;;;;;;;;2091770;28;1285;-86
2021/10/14 05:18:23;;;;;;;;;;;;;;;;;;2092320;28;1317;-86
2021/10/14 05:19:25;;;;;;;;;;;;;;;;;;2091345;28;1558;-86
2021/10/14 05:20:26;;;;;;;;;;;;;;;;;;2092736;28;1864;-86
2021/10/14 05:21:28;;;;;;;;;;;;;;;;;;2099975;28;1242;-86
2021/10/14 05:22:29;;;;;;;;;;;;;;;;;;2099702;28;1872;-86
2021/10/14 05:23:30;;;;;;;;;;;;;;;;;;2091545;28;1257;-86
2021/10/14 05:24:31;;;;;;;;;;;;;;;;;;2092153;28;1312;-86
2021/10/14 05:25:33;;;;;;;;;;;;;;;;;;2093429;28;1846;-86
2021/10/14 05:26:35;;;;;;;;;;;;;;;;;;2092225;28;1184;-86
2021/10/14 05:27:37;;;;;;;;;;;;;;;;;;2096922;28;1976;-86
2021/10/14 05:28:38;;;;;;;;;;;;;;;;;;2091906;28;1274;-86
2021/10/14 05:29:40;;;;;;;;;;;;;;;;;;2091117;28;1337;-86
2021/10/14 05:30:40;;;;;;;;;;;;;;;;;;2092617;28;1968;-86
2021/10/14 05:31:42;;;;;;;;;;;;;;;;;;2091811;28;1187;-86
2021/10/14 05:32:43;;;;;;;;;;;;;;;;;;2104685;28;1848;-86
2021/10/14 05:33:47;;;;;;;;;;;;;;;;;;2108085;28;1284;-88
2021/10/14 05:34:48;;;;;;;;;;;;;;;;;;2108665;28;1411;-86
2021/10/14 05:35:50;;;;;;;;;;;;;;;;;;2098745;28;1975;-86
2021/10/14 05:36:52;;;;;;;;;;;;;;;;;;2091700;28;1258;-86
2021/10/14 05:37:53;;;;;;;;;;;;;;;;;;2091878;28;1261;-86
2021/10/14 05:38:54;;;;;;;;;;;;;;;;;;2091991;28;1302;-86
2021/10/14 05:39:56;;;;;;;;;;;;;;;;;;2091872;28;1281;-86
2021/10/14 05:40:57;;;;;;;;;;;;;;;;;;2104900;28;1849;-86
2021/10/14 05:42:00;;;;;;;;;;;;;;;;;;2100038;28;1328;-86
2021/10/14 05:43:02;;;;;;;;;;;;;;;;;;2099879;28;1369;-86
2021/10/14 05:44:03;;;;;;;;;;;;;;;;;;2099804;28;1270;-86
2021/10/14 05:45:05;;;;;;;;;;;;;;;;;;2091792;28;1357;-85
2021/10/14 05:46:07;;;;;;;;;;;;;;;;;;2100099;28;1342;-86
2021/10/14 05:47:07;;;;;;;;;;;;;;;;;;2091972;28;1232;-85
2021/10/14 05:48:09;;;;;;;;;;;;;;;;;;2092030;28;1461;-85
2021/10/14 05:49:10;;;;;;;;;;;;;;;;;;2100008;28;1744;-85
2021/10/14 05:50:12;;;;;;;;;;;;;;;;;;2099789;28;1266;-85
2021/10/14 05:51:13;;;;;;;;;;;;;;;;;;2091723;28;1182;-85
2021/10/14 05:52:15;;;;;;;;;;;;;;;;;;2091916;28;1305;-85
2021/10/14 05:53:16;;;;;;;;;;;;;;;;;;2100440;28;1209;-86
2021/10/14 05:54:17;;;;;;;;;;;;;;;;;;2099825;28;1344;-85
2021/10/14 05:55:18;;;;;;;;;;;;;;;;;;2091546;28;1346;-85
2021/10/14 05:56:23;;;;;;;;;;;;;;;;;;2091443;28;1981;-85
2021/10/14 05:57:26;;;;;;;;;;;;;;;;;;2099935;28;2085;-85
2021/10/14 05:58:29;;;;;;;;;;;;;;;;;;2091573;28;1337;-85
2021/10/14 05:59:30;;;;;;;;;;;;;;;;;;2083783;28;1238;-85
2021/10/14 06:00:32;;;;;;;;;;;;;;;;;;2091886;28;1267;-86
2021/10/14 06:01:34;;;;;;;;;;;;;;;;;;2091602;28;1355;-85
2021/10/14 06:02:36;;;;;;;;;;;;;;;;;;2099779;28;1336;-85
2021/10/14 06:03:39;;;;;;;;;;;;;;;;;;2100096;28;1197;-85
2021/10/14 06:04:40;;;;;;;;;;;;;;;;;;2099338;28;1198;-85
2021/10/14 06:05:42;;;;;;;;;;;;;;;;;;2094225;28;1404;-85
2021/10/14 06:06:43;;;;;;;;;;;;;;;;;;2091993;28;1235;-86
2021/10/14 06:07:47;;;;;;;;;;;;;;;;;;2097446;28;1911;-86
2021/10/14 06:08:48;;;;;;;;;;;;;;;;;;2099840;28;1365;-86
2021/10/14 06:09:50;;;;;;;;;;;;;;;;;;2099683;28;1426;-87
2021/10/14 06:10:51;;;;;;;;;;;;;;;;;;2107752;28;1100;-84
2021/10/14 06:11:53;;;;;;;;;;;;;;;;;;2108034;28;1305;-85
2021/10/14 06:12:58;;;;;;;;;;;;;;;;;;2091703;28;1158;-85
2021/10/14 06:14:00;;;;;;;;;;;;;;;;;;2092091;28;1361;-84
2021/10/14 06:15:01;;;;;;;;;;;;;;;;;;2099745;28;1318;-84
2021/10/14 06:16:03;;;;;;;;;;;;;;;;;;2108202;28;1992;-83
2021/10/14 06:17:05;;;;;;;;;;;;;;;;;;2099775;28;1205;-84
2021/10/14 06:18:06;;;;;;;;;;;;;;;;;;2099600;28;1246;-83
2021/10/14 06:19:08;;;;;;;;;;;;;;;;;;2091058;28;1228;-84
2021/10/14 06:20:09;;;;;;;;;;;;;;;;;;2083651;28;1337;-84
2021/10/14 06:21:12;;;;;;;;;;;;;;;;;;2090503;28;1277;-85
2021/10/14 06:22:13;;;;;;;;;;;;;;;;;;2099694;28;1344;-84
2021/10/14 06:23:15;;;;;;;;;;;;;;;;;;2107891;28;1424;-84
2021/10/14 06:24:17;;;;;;;;;;;;;;;;;;2099738;28;1190;-83
2021/10/14 06:25:17;;;;;;;;;;;;;;;;;;2108032;28;1232;-83
2021/10/14 06:26:19;;;;;;;;;;;;;;;;;;2100087;28;1254;-84
2021/10/14 06:27:20;;;;;;;;;;;;;;;;;;2108148;28;1353;-85
2021/10/14 06:28:23;;;;;;;;;;;;;;;;;;2099453;28;1236;-86
2021/10/14 06:29:24;;;;;;;;;;;;;;;;;;2100098;28;1266;-85
2021/10/14 06:30:26;;;;;;;;;;;;;;;;;;2098461;28;1221;-85
2021/10/14 06:31:28;;;;;;;;;;;;;;;;;;2083211;28;1312;-84
2021/10/14 06:32:29;;;;;;;;;;;;;;;;;;2083192;28;1317;-85
2021/10/14 06:33:31;;;;;;;;;;;;;;;;;;2099751;28;1374;-85
2021/10/14 06:34:32;;;;;;;;;;;;;;;;;;2099584;28;1308;-84
2021/10/14 06:35:34;;;;;;;;;;;;;;;;;;2099267;28;2083;-84
2021/10/14 06:36:34;;;;;;;;;;;;;;;;;;2091391;28;1906;-84
2021/10/14 06:37:36;;;;;;;;;;;;;;;;;;2099479;28;1804;-82
2021/10/14 06:38:37;;;;;;;;;;;;;;;;;;2091280;28;1321;-83
2021/10/14 06:39:38;;;;;;;;;;;;;;;;;;2091184;28;1274;-82
2021/10/14 06:40:39;;;;;;;;;;;;;;;;;;2093886;28;2061;-82
2021/10/14 06:41:41;;;;;;;;;;;;;;;;;;2099142;28;1217;-83
2021/10/14 06:42:43;;;;;;;;;;;;;;;;;;2099611;28;1402;-83
2021/10/14 06:43:47;;;;;;;;;;;;;;;;;;2091248;28;1392;-84
2021/10/14 06:44:47;;;;;;;;;;;;;;;;;;2099756;28;1345;-84
2021/10/14 06:45:50;;;;;;;;;;;;;;;;;;2099518;28;1274;-85
2021/10/14 06:46:51;;;;;;;;;;;;;;;;;;2091785;28;1317;-85
2021/10/14 06:47:53;;;;;;;;;;;;;;;;;;2106127;28;2066;-85
2021/10/14 06:48:53;;;;;;;;;;;;;;;;;;2108212;28;1226;-86
2021/10/14 06:49:55;;;;;;;;;;;;;;;;;;2107420;28;1238;-86
2021/10/14 06:50:58;;;;;;;;;;;;;;;;;;2099904;28;1296;-85
2021/10/14 06:52:00;;;;;;;;;;;;;;;;;;2100003;28;1354;-85
2021/10/14 06:53:03;;;;;;;;;;;;;;;;;;2099017;28;1274;-81
2021/10/14 06:54:05;;;;;;;;;;;;;;;;;;2099308;28;1365;-80
2021/10/14 06:55:06;;;;;;;;;;;;;;;;;;2099035;28;1474;-85
2021/10/14 06:56:08;;;;;;;;;;;;;;;;;;2099106;28;2048;-85
2021/10/14 06:57:09;;;;;;;;;;;;;;;;;;2091010;28;1431;-86
2021/10/14 06:58:11;;;;;;;;;;;;;;;;;;2091052;28;1377;-84
2021/10/14 06:59:13;;;;;;;;;;;;;;;;;;2091316;28;1313;-85
2021/10/14 07:00:19;;;;;;;;;;;;;;;;;;2091129;28;1342;-86
2021/10/14 07:01:20;;;;;;;;;;;;;;;;;;2091978;28;1293;-86
2021/10/14 07:02:22;;;;;;;;;;;;;;;;;;2093846;28;2106;-86
2021/10/14 07:03:22;;;;;;;;;;;;;;;;;;2099260;28;1485;-86
2021/10/14 07:04:24;;;;;;;;;;;;;;;;;;2099131;28;1293;-86
2021/10/14 07:05:25;;;;;;;;;;;;;;;;;;2099023;28;1245;-86
2021/10/14 07:06:27;;;;;;;;;;;;;;;;;;2099494;28;1234;-85
2021/10/14 07:07:28;;;;;;;;;;;;;;;;;;2099160;28;2067;-86
2021/10/14 07:08:29;;;;;;;;;;;;;;;;;;2099167;28;1298;-85